Departure ICAO
Arrival ICAO

The revolutionary moving map for travelling passengers has finally arrived
More information here

LFMD Cannes Mandelieu - EGKB London Biggin Hill


Distance 545 NM


LFMN Nice Cote D'Azur VFR CAVOK

METAR LFMN 271300Z 12010KT 100V160 CAVOK 23/18 Q1016 NOSIG


LFMD Cannes Mandelieu VFR CAVOK CB

METAR LFMD 271300Z AUTO 14006KT 070V170 CAVOK 25/16 Q1016 TEMPO TS SCT100CB


LFLB Chambery Aix Les Bains VFR CAVOK

METAR LFLB 271300Z AUTO 34007KT CAVOK 26/15 Q1015 BECMG SCT055TCU


LFLS Grenoble Saint Geoirs CB

METAR LFLS 271300Z AUTO 22009KT 9999 ///CB 24/16 Q1016 BECMG 04012KT


LFLL Lyon Saint Exupery VFR CAVOK

METAR LFLL 271300Z VRB02KT CAVOK 26/16 Q1015 NOSIG


LFLY Lyon Bron VFR CAVOK

METAR LFLY 271300Z AUTO VRB02KT CAVOK 27/16 Q1015 BECMG SCT055TCU


LFLN Saint Yan VFR CAVOK CB

METAR LFLN 271300Z AUTO VRB01KT CAVOK 26/14 Q1016 TEMPO VRB15G25KT 2000 TSRA BKN015 BKN035CB


LFPM Melun Villaroche VFR CAVOK

METAR LFPM 271300Z AUTO VRB02KT CAVOK 28/17 Q1015


LFPO Paris Orly VFR CAVOK

METAR LFPO 271300Z VRB04KT CAVOK 27/16 Q1015 NOSIG


LFPG Paris Charles De Gaulle VFR

METAR LFPG 271300Z 36005KT 290V050 9999 SCT041 BKN220 26/16 Q1016 TEMPO VRB05KT FEW055TCU


LFPB Paris Le Bourget VFR CAVOK

METAR LFPB 271300Z AUTO VRB03KT CAVOK 27/16 Q1015 TEMPO FEW055TCU


LFPV Villacoublay Velizy VFR CAVOK

METAR LFPV 271300Z AUTO VRB03KT CAVOK 26/15 Q1016 TEMPO 4000 -SHRA SCT050TCU


LFPN Toussous Le Noble VFR CAVOK

METAR LFPN 271300Z AUTO 11004KT 060V170 CAVOK 26/15 Q1016 TEMPO SHRA SCT050TCU


LFPT Pontoise Cormeilles En Vexin VFR CAVOK

METAR LFPT 271300Z AUTO VRB03KT CAVOK 25/16 Q1015


LFOB Beauvais Tille VFR

METAR LFOB 271300Z AUTO 12004KT 090V180 9999 // NSC 25/16 Q1016


LFAT Le Tourquet Paris Plage VFR CAVOK

METAR LFAT 271300Z AUTO 33003KT 250V060 CAVOK 24/17 Q1016 NOSIG


EGMD Lydd VFR

METAR EGMD 271320Z 19007KT 160V220 7000 NSC 21/16 Q1016


EGKA Shoreham By Sea Shoreham IFR CAT I

METAR EGKA 271320Z 19007KT 4000 HZ FEW020TCU 19/15 Q1016


EGKB London Biggin Hill VFR

METAR EGKB 271320Z VRB04KT 9000 SCT027 24/18 Q1016


EGKK London Gatwick VFR

METAR EGKK 271320Z 21006KT 140V290 9999 SCT038 26/17 Q1015


EGLC London City VFR

METAR EGLC 271320Z AUTO 06004KT 020V090 9999 NCD 24/17 Q1015


EGSS London Stansted VFR

METAR EGSS 271320Z AUTO 10010KT 030V130 9999 NCD 24/18 Q1016


EGLL London Heathrow VFR

METAR EGLL 271320Z AUTO VRB03KT 9999 NCD 25/17 Q1015 TEMPO 4000 +SHRA


EGWU Northolt VFR CB

METAR EGWU 271250Z 13005KT 9999 -RA FEW030 BKN100 24/17 Q1015 TEMPO 4000 TSRA SCT045CB


EGLF London Farnborough VFR

METAR EGLF 271320Z VRB03KT 9999 SCT030 24/17 Q1015



NOTAMS LFMD

 NOTAMS EGKB